Terminal Aerodrome Forecast
Issued by NWS

Home | Current Version | Previous Version | Text Only | Print | Product List | Glossary On
Versions: 1 2 3 4 5 6 7 8 9 10 11 12 13 14
000
FTUS42 KMLB 161123
TAFTIX
TAF
KTIX 161123Z 1612/1712 11005KT P6SM FEW050 BKN250
     FM161500 11009KT P6SM SCT045 SCT250
     FM170000 10005KT P6SM FEW040 SCT250
     FM170900 00000KT 6SM BR FEW040
      TEMPO 1710/1712 3SM BR SCT015=

USA.gov is the U.S. government's official web portal to all federal, state and local government web resources and services.